Tina-c — 2APY2 — position and weather

sailwx.info

Track history (hours):
 
Tides and Currents Weather Stations Pressure Air Temp Water Temp Dewpoint Dewpoint Depression Visibility Wind Speed Wind Dir Waves Ship Positions

Tina-c

Last reported at 2014-Dec-19 13:31 UTC. Time now 2014-Dec-19 13:39 UTC.
Position N 52°28' E 001°44'.

Length 99 m; draft 4 m.

Type: Cargo ship. MMSI: 235061987.

Date/timePositionNaut miles runAvg speedWind from/ knotsBaromVisibWave heightAir tempDewpointWater temp
2014-Dec-19 13:31N 52°28' E 001°44'0 0.0
2014-Dec-19 12:31N 52°28' E 001°44'0 0.0
2014-Dec-19 11:31N 52°28' E 001°44'0 0.0
2014-Dec-19 10:31N 52°28' E 001°44'0 0.0
2014-Dec-19 09:31N 52°28' E 001°44'0 0.0
2014-Dec-19 08:31N 52°28' E 001°44'0 0.0
2014-Dec-19 07:28N 52°28' E 001°44'0 0.0
2014-Dec-19 06:31N 52°28' E 001°44'0 0.0
2014-Dec-19 05:31N 52°28' E 001°44'0 0.0
2014-Dec-19 04:31N 52°28' E 001°44'0 0.0
2014-Dec-19 03:31N 52°28' E 001°44'0 0.0
2014-Dec-19 02:28N 52°28' E 001°44'0 0.0
2014-Dec-19 01:31N 52°28' E 001°44'0 0.0
2014-Dec-19 00:31N 52°28' E 001°44'0 0.0
2014-Dec-18 23:31N 52°28' E 001°44'0 0.0
2014-Dec-18 22:31N 52°28' E 001°44'0 0.0
2014-Dec-18 21:31N 52°28' E 001°44'0 0.0
2014-Dec-18 20:28N 52°28' E 001°44'0 0.0
2014-Dec-18 19:28N 52°28' E 001°44'0 0.0
2014-Dec-18 18:31N 52°28' E 001°44'2 1.8
2014-Dec-18 17:32N 52°27' E 001°47'1 1.1
2014-Dec-18 16:34N 52°27' E 001°48'0 0.2
2014-Dec-18 15:34N 52°27' E 001°49'0 0.0
2014-Dec-18 14:34N 52°27' E 001°49'0 0.0
2014-Dec-18 13:34N 52°27' E 001°48'2 2.0
2014-Dec-18 12:34N 52°29' E 001°50'9 9.1
2014-Dec-18 11:34N 52°37' E 001°55'8 8.3
2014-Dec-18 10:34N 52°45' E 001°53'10 9.7
2014-Dec-18 09:34N 52°52' E 001°41'10 9.9
2014-Dec-18 08:34N 52°60' E 001°31'1110.8
2014-Dec-18 07:33N 53°09' E 001°21'3911.2
2014-Dec-18 04:04N 53°41' E 000°44'611.3
2014-Dec-18 03:34N 53°45' E 000°38'1212.0
2014-Dec-18 02:34N 53°54' E 000°24'1212.2
2014-Dec-18 01:34N 54°03' E 000°10'1312.6
2014-Dec-18 00:34N 54°13' W 000°03'1312.5
2014-Dec-17 23:34N 54°23' W 000°16'1212.3
2014-Dec-17 22:34N 54°33' W 000°28'1212.1
2014-Dec-17 21:33N 54°38' W 000°48'1212.0
2014-Dec-17 20:33N 54°41' W 001°08'2 0.5
2014-Dec-17 15:29N 54°42' W 001°12'0 0.0
2014-Dec-17 14:32N 54°42' W 001°12'0 0.0
2014-Dec-17 12:32N 54°42' W 001°12'0 0.0
2014-Dec-17 11:29N 54°42' W 001°12'0 0.0
2014-Dec-17 10:17N 54°42' W 001°12'0 0.0
2014-Dec-17 09:32N 54°42' W 001°12'0 0.0
2014-Dec-17 08:23N 54°42' W 001°12'0 0.0
2014-Dec-17 07:08N 54°42' W 001°12'0 0.0
2014-Dec-17 06:20N 54°42' W 001°12'0 0.0
2014-Dec-16 17:23N 54°42' W 001°12'0 0.0
2014-Dec-16 16:20N 54°42' W 001°12'0 0.0
2014-Dec-16 15:26N 54°42' W 001°12'0 0.0
2014-Dec-16 14:11N 54°42' W 001°12'0 0.0
2014-Dec-16 13:26N 54°42' W 001°12'0 0.0
2014-Dec-16 12:29N 54°42' W 001°12'0 0.0
2014-Dec-16 11:29N 54°42' W 001°12'0 0.0
2014-Dec-16 10:27N 54°42' W 001°12'2 2.0
2014-Dec-16 09:34N 54°41' W 001°09'9 8.7
2014-Dec-16 08:33N 54°39' W 000°54'1 0.6
2014-Dec-16 07:33N 54°39' W 000°53'6 6.0
2014-Dec-16 06:33N 54°37' W 000°43'7 6.7
2014-Dec-16 05:28N 54°34' W 000°31'6 6.9
2014-Dec-16 04:33N 54°30' W 000°24'7 6.9
2014-Dec-16 03:32N 54°24' W 000°17'8 8.4
2014-Dec-16 02:32N 54°17' W 000°08'9 9.5
2014-Dec-16 01:33N 54°10' E 000°01'9 8.4
2014-Dec-16 00:33N 54°03' E 000°10'8 7.8
2014-Dec-15 23:33N 53°57' E 000°18'8 7.8
2014-Dec-15 22:33N 53°51' E 000°27'8 8.0
2014-Dec-15 21:31N 53°45' E 000°37'45 9.1
2014-Dec-15 16:33N 53°09' E 001°21'9 8.8
2014-Dec-15 15:33N 53°01' E 001°29'8 8.1
2014-Dec-15 14:33N 52°55' E 001°37'9 8.4
2014-Dec-15 13:32N 52°48' E 001°47'8 8.1
2014-Dec-15 12:33N 52°42' E 001°55'10 9.9
2014-Dec-15 11:33N 52°33' E 001°53'2211.2
2014-Dec-15 09:33N 52°10' E 001°51'1211.9
2014-Dec-15 08:33N 51°59' E 001°49'1211.6
2014-Dec-15 07:33N 51°47' E 001°48'1111.2
2014-Dec-15 06:33N 51°36' E 001°48'1111.0
2014-Dec-15 05:33N 51°25' E 001°44'1111.5
2014-Dec-15 04:33N 51°14' E 001°39'9 8.6
2014-Dec-15 03:34N 51°05' E 001°39'  
2014-Dec-11 04:30N 39°09' W 009°51'10 9.9
2014-Dec-11 03:31N 38°60' W 009°51'9 9.8
2014-Dec-11 02:33N 38°50' W 009°51'10 9.8
2014-Dec-11 01:33N 38°40' W 009°50'10 9.6
2014-Dec-11 00:34N 38°31' W 009°47'10 9.9
2014-Dec-10 23:33N 38°21' W 009°45'10 9.6
2014-Dec-10 22:28N 38°11' W 009°42'9 9.9
2014-Dec-10 21:33N 38°03' W 009°39'1010.0
2014-Dec-10 20:32N 37°53' W 009°36'1010.2
2014-Dec-10 19:31N 37°42' W 009°33'216 9.3
2014-Dec-09 20:17N 35°58' W 005°37'9 8.5
2014-Dec-09 19:16N 35°59' W 005°27'6 8.8
2014-Dec-09 18:33N 35°56' W 005°20'2 2.4
2014-Dec-09 17:32N 35°54' W 005°19'0 0.0
2014-Dec-09 16:32N 35°54' W 005°19'0 0.0
2014-Dec-09 15:32N 35°54' W 005°19'0 0.0
2014-Dec-09 14:32N 35°54' W 005°19'0 0.0
2014-Dec-09 13:32N 35°54' W 005°19'  
Track history (hours):
 
Tides and Currents Weather Stations Pressure Air Temp Water Temp Dewpoint Dewpoint Depression Visibility Wind Speed Wind Dir Waves Ship Positions

Tina-c

Last reported at 2014-Dec-19 13:31 UTC. Time now 2014-Dec-19 13:39 UTC.
Position N 52°28' E 001°44'.

Length 99 m; draft 4 m.

Type: Cargo ship. MMSI: 235061987.

Date/timePositionNaut miles runAvg speedWind from/ knotsBaromVisibWave heightAir tempDewpointWater temp
2014-Dec-19 13:31N 52°28' E 001°44'0 0.0
2014-Dec-19 12:31N 52°28' E 001°44'0 0.0
2014-Dec-19 11:31N 52°28' E 001°44'0 0.0
2014-Dec-19 10:31N 52°28' E 001°44'0 0.0
2014-Dec-19 09:31N 52°28' E 001°44'0 0.0
2014-Dec-19 08:31N 52°28' E 001°44'0 0.0
2014-Dec-19 07:28N 52°28' E 001°44'0 0.0
2014-Dec-19 06:31N 52°28' E 001°44'0 0.0
2014-Dec-19 05:31N 52°28' E 001°44'0 0.0
2014-Dec-19 04:31N 52°28' E 001°44'0 0.0
2014-Dec-19 03:31N 52°28' E 001°44'0 0.0
2014-Dec-19 02:28N 52°28' E 001°44'0 0.0
2014-Dec-19 01:31N 52°28' E 001°44'0 0.0
2014-Dec-19 00:31N 52°28' E 001°44'0 0.0
2014-Dec-18 23:31N 52°28' E 001°44'0 0.0
2014-Dec-18 22:31N 52°28' E 001°44'0 0.0
2014-Dec-18 21:31N 52°28' E 001°44'0 0.0
2014-Dec-18 20:28N 52°28' E 001°44'0 0.0
2014-Dec-18 19:28N 52°28' E 001°44'0 0.0
2014-Dec-18 18:31N 52°28' E 001°44'2 1.8
2014-Dec-18 17:32N 52°27' E 001°47'1 1.1
2014-Dec-18 16:34N 52°27' E 001°48'0 0.2
2014-Dec-18 15:34N 52°27' E 001°49'0 0.0
2014-Dec-18 14:34N 52°27' E 001°49'0 0.0
2014-Dec-18 13:34N 52°27' E 001°48'2 2.0
2014-Dec-18 12:34N 52°29' E 001°50'9 9.1
2014-Dec-18 11:34N 52°37' E 001°55'8 8.3
2014-Dec-18 10:34N 52°45' E 001°53'10 9.7
2014-Dec-18 09:34N 52°52' E 001°41'10 9.9
2014-Dec-18 08:34N 52°60' E 001°31'1110.8
2014-Dec-18 07:33N 53°09' E 001°21'3911.2
2014-Dec-18 04:04N 53°41' E 000°44'611.3
2014-Dec-18 03:34N 53°45' E 000°38'1212.0
2014-Dec-18 02:34N 53°54' E 000°24'1212.2
2014-Dec-18 01:34N 54°03' E 000°10'1312.6
2014-Dec-18 00:34N 54°13' W 000°03'1312.5
2014-Dec-17 23:34N 54°23' W 000°16'1212.3
2014-Dec-17 22:34N 54°33' W 000°28'1212.1
2014-Dec-17 21:33N 54°38' W 000°48'1212.0
2014-Dec-17 20:33N 54°41' W 001°08'2 0.5
2014-Dec-17 15:29N 54°42' W 001°12'0 0.0
2014-Dec-17 14:32N 54°42' W 001°12'0 0.0
2014-Dec-17 12:32N 54°42' W 001°12'0 0.0
2014-Dec-17 11:29N 54°42' W 001°12'0 0.0
2014-Dec-17 10:17N 54°42' W 001°12'0 0.0
2014-Dec-17 09:32N 54°42' W 001°12'0 0.0
2014-Dec-17 08:23N 54°42' W 001°12'0 0.0
2014-Dec-17 07:08N 54°42' W 001°12'0 0.0
2014-Dec-17 06:20N 54°42' W 001°12'0 0.0
2014-Dec-16 17:23N 54°42' W 001°12'0 0.0
2014-Dec-16 16:20N 54°42' W 001°12'0 0.0
2014-Dec-16 15:26N 54°42' W 001°12'0 0.0
2014-Dec-16 14:11N 54°42' W 001°12'0 0.0
2014-Dec-16 13:26N 54°42' W 001°12'0 0.0
2014-Dec-16 12:29N 54°42' W 001°12'0 0.0
2014-Dec-16 11:29N 54°42' W 001°12'0 0.0
2014-Dec-16 10:27N 54°42' W 001°12'2 2.0
2014-Dec-16 09:34N 54°41' W 001°09'9 8.7
2014-Dec-16 08:33N 54°39' W 000°54'1 0.6
2014-Dec-16 07:33N 54°39' W 000°53'6 6.0
2014-Dec-16 06:33N 54°37' W 000°43'7 6.7
2014-Dec-16 05:28N 54°34' W 000°31'6 6.9
2014-Dec-16 04:33N 54°30' W 000°24'7 6.9
2014-Dec-16 03:32N 54°24' W 000°17'8 8.4
2014-Dec-16 02:32N 54°17' W 000°08'9 9.5
2014-Dec-16 01:33N 54°10' E 000°01'9 8.4
2014-Dec-16 00:33N 54°03' E 000°10'8 7.8
2014-Dec-15 23:33N 53°57' E 000°18'8 7.8
2014-Dec-15 22:33N 53°51' E 000°27'8 8.0
2014-Dec-15 21:31N 53°45' E 000°37'45 9.1
2014-Dec-15 16:33N 53°09' E 001°21'9 8.8
2014-Dec-15 15:33N 53°01' E 001°29'8 8.1
2014-Dec-15 14:33N 52°55' E 001°37'9 8.4
2014-Dec-15 13:32N 52°48' E 001°47'8 8.1
2014-Dec-15 12:33N 52°42' E 001°55'10 9.9
2014-Dec-15 11:33N 52°33' E 001°53'2211.2
2014-Dec-15 09:33N 52°10' E 001°51'1211.9
2014-Dec-15 08:33N 51°59' E 001°49'1211.6
2014-Dec-15 07:33N 51°47' E 001°48'1111.2
2014-Dec-15 06:33N 51°36' E 001°48'1111.0
2014-Dec-15 05:33N 51°25' E 001°44'1111.5
2014-Dec-15 04:33N 51°14' E 001°39'9 8.6
2014-Dec-15 03:34N 51°05' E 001°39'  
2014-Dec-11 04:30N 39°09' W 009°51'10 9.9
2014-Dec-11 03:31N 38°60' W 009°51'9 9.8
2014-Dec-11 02:33N 38°50' W 009°51'10 9.8
2014-Dec-11 01:33N 38°40' W 009°50'10 9.6
2014-Dec-11 00:34N 38°31' W 009°47'10 9.9
2014-Dec-10 23:33N 38°21' W 009°45'10 9.6
2014-Dec-10 22:28N 38°11' W 009°42'9 9.9
2014-Dec-10 21:33N 38°03' W 009°39'1010.0
2014-Dec-10 20:32N 37°53' W 009°36'1010.2
2014-Dec-10 19:31N 37°42' W 009°33'216 9.3
2014-Dec-09 20:17N 35°58' W 005°37'9 8.5
2014-Dec-09 19:16N 35°59' W 005°27'6 8.8
2014-Dec-09 18:33N 35°56' W 005°20'2 2.4
2014-Dec-09 17:32N 35°54' W 005°19'0 0.0
2014-Dec-09 16:32N 35°54' W 005°19'0 0.0
2014-Dec-09 15:32N 35°54' W 005°19'0 0.0
2014-Dec-09 14:32N 35°54' W 005°19'0 0.0
2014-Dec-09 13:32N 35°54' W 005°19'  

Dump ship's entire track history